createdAt,value
2023-11-07T00:01:23.677Z,94977.25
2023-11-07T00:03:50.477Z,94980.44
2023-11-07T00:06:17.242Z,94974.25
2023-11-07T00:08:43.921Z,94977.47
2023-11-07T00:11:10.623Z,94983.22
2023-11-07T00:13:37.284Z,94983.72
2023-11-07T00:16:04.219Z,94978.66
2023-11-07T00:18:30.967Z,94983.34
2023-11-07T00:20:57.892Z,94978.66
2023-11-07T00:23:24.590Z,94974.63
2023-11-07T00:25:55.220Z,94980.47
2023-11-07T00:28:21.861Z,94979.75
2023-11-07T00:30:48.515Z,94981.75
2023-11-07T00:33:15.407Z,94976.41
2023-11-07T00:35:42.149Z,94971.25
2023-11-07T00:38:08.804Z,94976.47
2023-11-07T00:40:35.476Z,94980.72
2023-11-07T00:43:02.553Z,94978.00
2023-11-07T00:45:29.314Z,94986.50
2023-11-07T00:47:56.068Z,94980.28
2023-11-07T00:50:22.773Z,94982.63
2023-11-07T00:52:50.719Z,94985.75
2023-11-07T00:55:17.397Z,94987.19
2023-11-07T00:57:44.036Z,94988.22
2023-11-07T01:00:11.400Z,94997.31
2023-11-07T01:02:38.197Z,94993.41
2023-11-07T01:05:05.274Z,94984.97
2023-11-07T01:07:31.983Z,94986.53
2023-11-07T01:09:58.639Z,94993.13
2023-11-07T01:12:25.279Z,95000.72
2023-11-07T01:14:52.122Z,94982.72
2023-11-07T01:17:18.820Z,94987.75
2023-11-07T01:19:45.647Z,94988.50
2023-11-07T01:22:12.306Z,94998.78
2023-11-07T01:24:38.979Z,94992.09
2023-11-07T01:27:05.702Z,95001.09
2023-11-07T01:29:32.398Z,95000.03
2023-11-07T01:31:59.046Z,94990.59
2023-11-07T01:34:25.728Z,94996.88
2023-11-07T01:36:52.461Z,94993.56
2023-11-07T01:39:19.161Z,94988.28
2023-11-07T01:41:45.896Z,95001.97
2023-11-07T01:44:12.602Z,94997.44
2023-11-07T01:46:39.304Z,95005.13
2023-11-07T01:49:06.053Z,95003.50
2023-11-07T01:51:32.856Z,95000.59
2023-11-07T01:54:00.879Z,94998.28
2023-11-07T01:56:27.846Z,94994.69
2023-11-07T01:58:57.072Z,94995.13
2023-11-07T02:01:25.803Z,94987.63
2023-11-07T02:03:52.863Z,94993.50
2023-11-07T02:06:19.731Z,94997.91
2023-11-07T02:08:46.554Z,95006.00
2023-11-07T02:11:13.250Z,94995.81
2023-11-07T02:13:40.004Z,94996.81
2023-11-07T02:16:07.230Z,94997.50
2023-11-07T02:18:34.148Z,94997.69
2023-11-07T02:21:00.919Z,95005.53
2023-11-07T02:23:32.128Z,95009.00
2023-11-07T02:25:59.461Z,95001.84
2023-11-07T02:28:26.172Z,95006.94
2023-11-07T02:30:53.289Z,95008.88
2023-11-07T02:33:20.149Z,95012.13
2023-11-07T02:35:47.624Z,95014.94
2023-11-07T02:38:14.382Z,95022.34
2023-11-07T02:40:41.049Z,95021.22
2023-11-07T02:43:07.746Z,95026.91
2023-11-07T02:45:36.575Z,95009.41
2023-11-07T02:48:04.038Z,95011.91
2023-11-07T02:50:31.044Z,95015.72
2023-11-07T02:52:57.698Z,95010.34
2023-11-07T02:55:25.409Z,95019.09
2023-11-07T02:57:52.067Z,95020.19
2023-11-07T03:00:19.076Z,95011.19
2023-11-07T03:02:45.809Z,95017.06
2023-11-07T03:05:12.653Z,95026.75
2023-11-07T03:07:39.295Z,95024.22
2023-11-07T03:10:06.274Z,95012.69
2023-11-07T03:12:32.955Z,95018.69
2023-11-07T03:14:59.644Z,95016.81
2023-11-07T03:17:26.557Z,95017.53
2023-11-07T03:19:53.290Z,95015.28
2023-11-07T03:22:23.676Z,95010.34
2023-11-07T03:24:50.444Z,95010.13
2023-11-07T03:27:17.148Z,95019.00
2023-11-07T03:29:44.080Z,95021.66
2023-11-07T03:32:10.878Z,95013.31
2023-11-07T03:34:37.541Z,95025.31
2023-11-07T03:37:04.315Z,95025.31
2023-11-07T03:39:32.125Z,95021.94
2023-11-07T03:41:59.798Z,95019.75
2023-11-07T03:44:26.593Z,95033.03
2023-11-07T03:46:53.266Z,95031.25
2023-11-07T03:49:20.033Z,95027.44
2023-11-07T03:51:46.694Z,95030.22
2023-11-07T03:54:13.361Z,95018.94
2023-11-07T03:56:40.152Z,95024.38
2023-11-07T03:59:06.796Z,95023.88
2023-11-07T04:01:37.397Z,95027.59
2023-11-07T04:04:04.893Z,95013.97
2023-11-07T04:06:32.094Z,95023.38
2023-11-07T04:08:59.740Z,95027.47
2023-11-07T04:11:27.278Z,95019.16
2023-11-07T04:14:16.027Z,95023.66
2023-11-07T04:16:42.678Z,95025.03
2023-11-07T04:19:09.520Z,95023.56
2023-11-07T04:21:36.228Z,95023.84
2023-11-07T04:24:02.931Z,95026.19
2023-11-07T04:26:29.636Z,95029.41
2023-11-07T04:28:56.296Z,95029.13
2023-11-07T04:31:22.945Z,95041.03
2023-11-07T04:33:50.253Z,95041.97
2023-11-07T04:36:17.017Z,95036.69
2023-11-07T04:38:44.428Z,95042.88
2023-11-07T04:41:11.283Z,95027.06
2023-11-07T04:43:37.928Z,95034.22
2023-11-07T04:46:04.840Z,95025.41
2023-11-07T04:48:31.841Z,95027.75
2023-11-07T04:51:02.560Z,95024.88
2023-11-07T04:53:29.343Z,95032.22
2023-11-07T04:55:56.238Z,95028.28
2023-11-07T04:58:24.783Z,95045.94
2023-11-07T05:00:51.490Z,95036.28
2023-11-07T05:03:20.954Z,95034.72
2023-11-07T05:05:49.422Z,95039.78
2023-11-07T05:08:16.074Z,95044.94
2023-11-07T05:10:42.761Z,95041.28
2023-11-07T05:13:09.440Z,95050.94
2023-11-07T05:15:36.101Z,95039.75
2023-11-07T05:18:02.901Z,95048.63
2023-11-07T05:20:30.669Z,95040.28
2023-11-07T05:22:57.329Z,95037.94
2023-11-07T05:25:24.034Z,95048.16
2023-11-07T05:27:50.688Z,95048.75
2023-11-07T05:30:17.418Z,95039.47
2023-11-07T05:32:44.185Z,95042.56
2023-11-07T05:35:10.888Z,95046.75
2023-11-07T05:37:37.552Z,95049.31
2023-11-07T05:40:04.570Z,95049.59
2023-11-07T05:42:31.269Z,95046.41
2023-11-07T05:44:59.295Z,95035.13
2023-11-07T05:47:26.189Z,95051.03
2023-11-07T05:49:52.858Z,95050.31
2023-11-07T05:52:19.519Z,95046.88
2023-11-07T05:54:46.197Z,95041.59
2023-11-07T05:57:13.073Z,95048.31
2023-11-07T05:59:39.762Z,95038.72
2023-11-07T06:02:06.517Z,95053.00
2023-11-07T06:04:36.496Z,95051.78
2023-11-07T06:07:04.076Z,95053.19
2023-11-07T06:09:30.820Z,95044.88
2023-11-07T06:11:57.897Z,95050.19
2023-11-07T06:14:25.278Z,95054.59
2023-11-07T06:16:52.445Z,95057.47
2023-11-07T06:19:19.468Z,95055.81
2023-11-07T06:21:46.248Z,95063.13
2023-11-07T06:24:12.955Z,95059.13
2023-11-07T06:26:39.694Z,95064.25
2023-11-07T06:29:06.455Z,95069.25
2023-11-07T06:31:33.171Z,95067.91
2023-11-07T06:34:00.213Z,95070.09
2023-11-07T06:36:27.098Z,95072.41
2023-11-07T06:38:53.844Z,95077.06
2023-11-07T06:41:20.607Z,95069.66
2023-11-07T06:43:51.504Z,95079.56
2023-11-07T06:46:21.494Z,95083.00
2023-11-07T06:48:48.422Z,95082.75
2023-11-07T06:51:16.166Z,95083.84
2023-11-07T06:53:42.912Z,95086.88
2023-11-07T06:56:09.758Z,95093.34
2023-11-07T06:58:36.839Z,95101.31
2023-11-07T07:01:04.320Z,95100.78
2023-11-07T07:03:31.188Z,95104.50
2023-11-07T07:05:58.018Z,95103.25
2023-11-07T07:08:24.793Z,95098.78
2023-11-07T07:10:53.118Z,95096.00
2023-11-07T07:13:19.962Z,95104.56
2023-11-07T07:15:47.582Z,95109.88
2023-11-07T07:18:14.783Z,95102.19
2023-11-07T07:20:41.565Z,95102.66
2023-11-07T07:23:08.620Z,95106.25
2023-11-07T07:25:36.123Z,95104.81
2023-11-07T07:28:04.726Z,95106.41
2023-11-07T07:30:31.706Z,95111.47
2023-11-07T07:32:58.558Z,95107.41
2023-11-07T07:35:25.515Z,95117.31
2023-11-07T07:37:52.224Z,95119.66
2023-11-07T07:40:20.601Z,95120.19
2023-11-07T07:42:47.367Z,95125.19
2023-11-07T07:45:14.261Z,95125.47
2023-11-07T07:47:41.093Z,95125.03
2023-11-07T07:50:09.224Z,95124.00
2023-11-07T07:52:35.898Z,95125.69
2023-11-07T07:55:10.460Z,95129.00
2023-11-07T07:57:43.266Z,95132.50
2023-11-07T08:00:10.404Z,95137.19
2023-11-07T08:02:37.162Z,95142.84
2023-11-07T08:05:03.997Z,95134.81
2023-11-07T08:07:30.753Z,95146.09
2023-11-07T08:09:57.427Z,95150.13
2023-11-07T08:12:24.081Z,95151.25
2023-11-07T08:14:50.764Z,95147.03
2023-11-07T08:17:17.928Z,95156.38
2023-11-07T08:19:44.665Z,95157.72
2023-11-07T08:22:11.394Z,95160.25
2023-11-07T08:24:38.119Z,95159.16
2023-11-07T08:27:04.924Z,95157.56
2023-11-07T08:29:31.691Z,95171.31
2023-11-07T08:31:58.472Z,95156.66
2023-11-07T08:34:25.412Z,95155.34
2023-11-07T08:37:01.878Z,95162.69
2023-11-07T08:39:35.474Z,95169.94
2023-11-07T08:42:02.407Z,95170.13
2023-11-07T08:44:29.473Z,95178.22
2023-11-07T08:46:56.314Z,95169.47
2023-11-07T08:49:23.147Z,95172.16
2023-11-07T08:51:49.970Z,95176.88
2023-11-07T08:54:16.781Z,95181.03
2023-11-07T08:56:43.580Z,95188.19
2023-11-07T08:59:10.319Z,95194.84
2023-11-07T09:01:37.099Z,95193.66
2023-11-07T09:04:03.972Z,95197.19
2023-11-07T09:06:31.027Z,95197.91
2023-11-07T09:08:57.785Z,95193.69
2023-11-07T09:11:24.530Z,95203.84
2023-11-07T09:13:51.305Z,95206.97
2023-11-07T09:16:18.113Z,95214.91
2023-11-07T09:18:45.008Z,95224.28
2023-11-07T09:21:11.873Z,95207.06
2023-11-07T09:23:38.682Z,95207.22
2023-11-07T09:26:05.538Z,95213.03
2023-11-07T09:28:32.298Z,95218.31
2023-11-07T09:30:59.290Z,95211.75
2023-11-07T09:33:26.155Z,95216.69
2023-11-07T09:35:52.939Z,95216.47
2023-11-07T09:38:20.044Z,95210.94
2023-11-07T09:40:46.856Z,95214.25
2023-11-07T09:43:13.972Z,95212.13
2023-11-07T09:45:43.190Z,95214.75
2023-11-07T09:48:10.296Z,95220.91
2023-11-07T09:50:37.298Z,95217.03
2023-11-07T09:53:05.090Z,95232.81
2023-11-07T09:55:33.395Z,95227.84
2023-11-07T09:58:12.944Z,95223.25
2023-11-07T10:00:44.319Z,95221.38
2023-11-07T10:03:11.670Z,95223.88
2023-11-07T10:05:40.106Z,95240.75
2023-11-07T10:08:06.822Z,95235.19
2023-11-07T10:10:33.903Z,95235.22
2023-11-07T10:13:09.289Z,95240.47
2023-11-07T10:15:36.453Z,95237.66
2023-11-07T10:18:06.590Z,95252.75
2023-11-07T10:20:34.607Z,95242.44
2023-11-07T10:23:02.082Z,95248.94
2023-11-07T10:25:37.011Z,95239.19
2023-11-07T10:28:05.349Z,95255.91
2023-11-07T10:30:42.853Z,95243.06
2023-11-07T10:33:28.300Z,95248.81
2023-11-07T10:35:58.078Z,95248.56
2023-11-07T10:38:25.524Z,95247.53
2023-11-07T10:40:52.974Z,95253.91
2023-11-07T10:43:39.706Z,95254.09
2023-11-07T10:46:12.832Z,95245.66
2023-11-07T10:48:42.426Z,95247.97
2023-11-07T10:51:12.118Z,95254.16
2023-11-07T10:53:40.804Z,95247.91
2023-11-07T10:56:18.832Z,95253.03
2023-11-07T10:59:00.579Z,95248.56
2023-11-07T11:01:31.297Z,95252.91
2023-11-07T11:04:03.068Z,95248.13
2023-11-07T11:06:33.064Z,95255.38
2023-11-07T11:09:05.719Z,95243.47
2023-11-07T11:11:34.702Z,95244.66
2023-11-07T11:14:03.989Z,95241.22
2023-11-07T11:16:32.743Z,95237.19
2023-11-07T11:19:23.024Z,95239.69
2023-11-07T11:21:57.866Z,95244.22
2023-11-07T11:25:02.248Z,95231.31
2023-11-07T11:27:36.962Z,95232.56
2023-11-07T11:30:04.093Z,95236.97
2023-11-07T11:32:31.863Z,95239.59
2023-11-07T11:35:13.890Z,95234.28
2023-11-07T11:38:09.623Z,95238.63
2023-11-07T11:40:58.442Z,95235.50
2023-11-07T11:43:27.419Z,95226.78
2023-11-07T11:45:56.245Z,95233.38
2023-11-07T11:48:47.998Z,95235.03
2023-11-07T11:51:34.125Z,95230.50
2023-11-07T11:54:01.319Z,95235.00
2023-11-07T11:56:28.629Z,95233.06
2023-11-07T11:59:06.994Z,95218.31
2023-11-07T12:01:53.995Z,95228.38
2023-11-07T12:04:26.776Z,95225.66
2023-11-07T12:07:09.868Z,95222.19
2023-11-07T12:09:49.065Z,95214.50
2023-11-07T12:12:16.555Z,95218.47
2023-11-07T12:15:00.965Z,95215.25
2023-11-07T12:17:43.180Z,95214.91
2023-11-07T12:20:13.315Z,95215.41
2023-11-07T12:22:43.934Z,95220.69
2023-11-07T12:25:14.299Z,95213.75
2023-11-07T12:27:42.445Z,95212.72
2023-11-07T12:30:16.775Z,95214.47
2023-11-07T12:32:45.335Z,95218.69
2023-11-07T12:35:22.305Z,95213.13
2023-11-07T12:37:51.339Z,95213.56
2023-11-07T12:40:19.165Z,95219.03
2023-11-07T12:42:53.947Z,95212.63
2023-11-07T12:45:29.262Z,95215.97
2023-11-07T12:47:58.271Z,95221.09
2023-11-07T12:50:28.870Z,95221.28
2023-11-07T12:52:56.800Z,95217.59
2023-11-07T12:55:23.662Z,95220.31
2023-11-07T12:57:51.264Z,95218.28
2023-11-07T13:00:18.310Z,95221.78
2023-11-07T13:02:45.196Z,95219.13
2023-11-07T13:05:16.694Z,95225.75
2023-11-07T13:07:44.149Z,95224.19
2023-11-07T13:10:15.717Z,95228.47
2023-11-07T13:12:43.049Z,95227.41
2023-11-07T13:15:14.138Z,95231.56
2023-11-07T13:17:41.900Z,95225.44
2023-11-07T13:20:10.135Z,95234.81
2023-11-07T13:22:36.837Z,95235.13
2023-11-07T13:25:04.053Z,95225.72
2023-11-07T13:27:30.809Z,95221.72
2023-11-07T13:29:57.563Z,95225.69
2023-11-07T13:32:24.365Z,95219.50
2023-11-07T13:34:51.220Z,95220.16
2023-11-07T13:37:18.466Z,95216.50
2023-11-07T13:39:45.553Z,95206.00
2023-11-07T13:42:12.299Z,95206.94
2023-11-07T13:44:39.127Z,95208.16
2023-11-07T13:47:05.948Z,95204.94
2023-11-07T13:49:32.821Z,95213.59
2023-11-07T13:51:59.493Z,95212.97
2023-11-07T13:54:26.203Z,95207.06
2023-11-07T13:56:52.889Z,95201.41
2023-11-07T13:59:19.589Z,95208.47
2023-11-07T14:01:46.347Z,95207.03
2023-11-07T14:04:13.293Z,95198.03
2023-11-07T14:06:40.392Z,95201.09
2023-11-07T14:09:07.221Z,95203.16
2023-11-07T14:11:34.026Z,95202.47
2023-11-07T14:14:00.786Z,95198.94
2023-11-07T14:16:27.604Z,95198.84
2023-11-07T14:18:54.792Z,95201.34
2023-11-07T14:21:21.665Z,95213.03
2023-11-07T14:23:49.136Z,95201.91
2023-11-07T14:26:15.904Z,95223.72
2023-11-07T14:28:50.858Z,95215.66
2023-11-07T14:31:25.883Z,95225.47
2023-11-07T14:33:52.720Z,95229.44
2023-11-07T14:36:19.656Z,95222.63
2023-11-07T14:38:46.882Z,95235.88
2023-11-07T14:41:13.524Z,95231.72
2023-11-07T14:43:40.176Z,95236.03
2023-11-07T14:46:06.950Z,95235.69
2023-11-07T14:48:34.716Z,95240.41
2023-11-07T14:51:01.560Z,95249.75
2023-11-07T14:53:28.356Z,95238.84
2023-11-07T14:55:55.365Z,95251.38
2023-11-07T14:58:24.404Z,95248.56
2023-11-07T15:00:52.155Z,95257.06
2023-11-07T15:03:19.053Z,95248.66
2023-11-07T15:05:45.960Z,95254.13
2023-11-07T15:08:12.684Z,95254.94
2023-11-07T15:10:39.531Z,95255.88
2023-11-07T15:13:07.114Z,95265.38
2023-11-07T15:15:34.642Z,95257.72
2023-11-07T15:18:02.852Z,95266.63
2023-11-07T15:20:29.896Z,95267.53
2023-11-07T15:22:56.969Z,95267.13
2023-11-07T15:25:23.783Z,95262.09
2023-11-07T15:27:50.440Z,95259.88
2023-11-07T15:30:17.215Z,95264.50
2023-11-07T15:32:45.706Z,95257.97
2023-11-07T15:35:12.543Z,95262.91
2023-11-07T15:37:39.207Z,95267.38
2023-11-07T15:40:06.234Z,95269.53
2023-11-07T15:42:32.913Z,95261.66
2023-11-07T15:44:59.599Z,95273.00
2023-11-07T15:47:26.303Z,95277.94
2023-11-07T15:49:53.114Z,95282.25
2023-11-07T15:52:19.757Z,95279.84
2023-11-07T15:54:46.568Z,95291.03
2023-11-07T15:57:13.923Z,95292.91
2023-11-07T15:59:40.625Z,95290.16
2023-11-07T16:02:07.266Z,95296.50
2023-11-07T16:04:34.071Z,95292.53
2023-11-07T16:07:00.819Z,95293.75
2023-11-07T16:09:27.593Z,95288.06
2023-11-07T16:11:54.329Z,95291.16
2023-11-07T16:14:21.079Z,95298.97
2023-11-07T16:16:47.899Z,95300.03
2023-11-07T16:19:14.669Z,95307.63
2023-11-07T16:21:42.733Z,95301.00
2023-11-07T16:24:09.783Z,95304.75
2023-11-07T16:26:40.181Z,95313.44
2023-11-07T16:29:06.926Z,95303.84
2023-11-07T16:31:33.666Z,95298.47
2023-11-07T16:34:04.605Z,95310.88
2023-11-07T16:36:31.370Z,95309.06
2023-11-07T16:38:58.268Z,95307.69
2023-11-07T16:41:25.031Z,95317.75
2023-11-07T16:43:52.058Z,95312.47
2023-11-07T16:46:19.093Z,95323.47
2023-11-07T16:48:45.923Z,95330.41
2023-11-07T16:51:12.808Z,95337.78
2023-11-07T16:53:39.621Z,95337.38
2023-11-07T16:56:06.517Z,95347.88
2023-11-07T16:58:33.227Z,95343.13
2023-11-07T17:00:59.866Z,95340.75
2023-11-07T17:03:26.812Z,95348.84
2023-11-07T17:05:53.691Z,95345.69
2023-11-07T17:08:20.372Z,95351.47
2023-11-07T17:10:47.030Z,95346.47
2023-11-07T17:13:13.754Z,95359.69
2023-11-07T17:15:41.770Z,95355.09
2023-11-07T17:18:08.579Z,95352.56
2023-11-07T17:20:35.261Z,95345.22
2023-11-07T17:23:02.301Z,95349.97
2023-11-07T17:25:29.004Z,95351.66
2023-11-07T17:27:56.034Z,95366.50
2023-11-07T17:30:22.882Z,95361.09
2023-11-07T17:32:50.133Z,95365.09
2023-11-07T17:35:17.092Z,95369.38
2023-11-07T17:37:43.983Z,95365.97
2023-11-07T17:40:11.024Z,95371.94
2023-11-07T17:42:37.891Z,95379.03
2023-11-07T17:45:05.844Z,95380.25
2023-11-07T17:47:33.080Z,95381.84
2023-11-07T17:50:00.975Z,95390.03
2023-11-07T17:52:27.703Z,95388.06
2023-11-07T17:54:54.434Z,95396.88
2023-11-07T17:57:23.902Z,95389.50
2023-11-07T17:59:50.973Z,95388.63
2023-11-07T18:02:17.753Z,95396.50
2023-11-07T18:04:44.465Z,95405.25
2023-11-07T18:07:11.214Z,95403.25
2023-11-07T18:09:38.426Z,95405.50
2023-11-07T18:12:05.376Z,95405.69
2023-11-07T18:14:32.124Z,95405.28
2023-11-07T18:16:58.906Z,95406.91
2023-11-07T18:19:26.130Z,95411.75
2023-11-07T18:21:53.082Z,95404.44
2023-11-07T18:24:19.790Z,95412.56
2023-11-07T18:26:46.550Z,95408.09
2023-11-07T18:29:13.662Z,95414.13
2023-11-07T18:31:40.405Z,95411.72
2023-11-07T18:34:16.641Z,95408.69
2023-11-07T18:37:03.689Z,95405.06
2023-11-07T18:39:31.773Z,95412.69
2023-11-07T18:41:58.948Z,95413.75
2023-11-07T18:44:25.929Z,95415.28
2023-11-07T18:46:52.674Z,95411.88
2023-11-07T18:49:19.386Z,95409.81
2023-11-07T18:51:47.588Z,95415.66
2023-11-07T18:54:14.617Z,95413.56
2023-11-07T18:56:48.065Z,95421.91
2023-11-07T18:59:24.202Z,95421.00
2023-11-07T19:01:58.646Z,95423.09
2023-11-07T19:04:25.410Z,95418.63
2023-11-07T19:06:52.290Z,95420.38
2023-11-07T19:09:19.094Z,95427.41
2023-11-07T19:11:45.859Z,95432.88
2023-11-07T19:14:12.551Z,95437.84
2023-11-07T19:16:39.198Z,95438.53
2023-11-07T19:19:06.132Z,95444.97
2023-11-07T19:21:32.930Z,95442.16
2023-11-07T19:23:59.700Z,95440.28
2023-11-07T19:26:27.042Z,95443.81
2023-11-07T19:28:53.686Z,95439.97
2023-11-07T19:31:20.350Z,95447.31
2023-11-07T19:33:47.119Z,95445.97
2023-11-07T19:36:13.960Z,95446.47
2023-11-07T19:38:40.818Z,95443.72
2023-11-07T19:41:07.514Z,95436.22
2023-11-07T19:43:40.412Z,95447.00
2023-11-07T19:46:09.640Z,95445.75
2023-11-07T19:48:37.080Z,95440.91
2023-11-07T19:51:04.338Z,95441.34
2023-11-07T19:53:31.037Z,95449.03
2023-11-07T19:55:57.692Z,95441.13
2023-11-07T19:58:24.443Z,95449.84
2023-11-07T20:00:51.089Z,95452.91
2023-11-07T20:03:17.928Z,95448.44
2023-11-07T20:05:44.683Z,95451.06
2023-11-07T20:08:11.689Z,95444.56
2023-11-07T20:10:38.351Z,95450.66
2023-11-07T20:13:05.006Z,95457.31
2023-11-07T20:15:31.720Z,95465.16
2023-11-07T20:17:58.830Z,95471.03
2023-11-07T20:20:25.552Z,95471.88
2023-11-07T20:22:52.206Z,95467.63
2023-11-07T20:25:18.883Z,95469.25
2023-11-07T20:27:45.683Z,95472.72
2023-11-07T20:30:12.490Z,95466.72
2023-11-07T20:32:39.255Z,95467.97
2023-11-07T20:35:06.519Z,95482.44
2023-11-07T20:37:33.383Z,95478.16
2023-11-07T20:40:00.135Z,95475.06
2023-11-07T20:42:27.011Z,95469.91
2023-11-07T20:45:00.882Z,95474.94
2023-11-07T20:47:35.184Z,95480.50
2023-11-07T20:50:02.082Z,95470.38
2023-11-07T20:52:28.735Z,95471.03
2023-11-07T20:54:55.790Z,95467.19
2023-11-07T20:57:22.553Z,95475.91
2023-11-07T20:59:49.619Z,95469.69
2023-11-07T21:02:16.297Z,95481.91
2023-11-07T21:04:42.987Z,95481.91
2023-11-07T21:07:09.718Z,95479.44
2023-11-07T21:09:36.455Z,95480.16
2023-11-07T21:12:03.374Z,95478.47
2023-11-07T21:14:30.048Z,95473.00
2023-11-07T21:16:56.780Z,95474.59
2023-11-07T21:19:25.572Z,95473.84
2023-11-07T21:21:53.408Z,95472.81
2023-11-07T21:24:20.213Z,95463.66
2023-11-07T21:26:46.872Z,95484.81
2023-11-07T21:29:13.538Z,95477.75
2023-11-07T21:31:40.226Z,95475.47
2023-11-07T21:34:06.940Z,95474.09
2023-11-07T21:36:33.768Z,95475.53
2023-11-07T21:39:00.448Z,95465.28
2023-11-07T21:41:27.150Z,95472.75
2023-11-07T21:43:53.795Z,95464.88
2023-11-07T21:46:20.437Z,95468.13
2023-11-07T21:48:47.458Z,95471.94
2023-11-07T21:51:14.247Z,95475.72
2023-11-07T21:53:40.950Z,95480.00
2023-11-07T21:56:07.661Z,95476.84
2023-11-07T21:58:34.307Z,95472.78
2023-11-07T22:01:01.062Z,95464.31
2023-11-07T22:03:27.788Z,95469.75
2023-11-07T22:05:54.584Z,95466.75
2023-11-07T22:08:21.297Z,95466.03
2023-11-07T22:10:48.073Z,95467.88
2023-11-07T22:13:14.738Z,95462.63
2023-11-07T22:15:41.401Z,95463.22
2023-11-07T22:18:08.448Z,95455.94
2023-11-07T22:20:37.084Z,95460.78
2023-11-07T22:23:03.889Z,95458.78
2023-11-07T22:25:30.814Z,95460.63
2023-11-07T22:27:58.381Z,95466.47
2023-11-07T22:30:26.216Z,95465.25
2023-11-07T22:32:53.124Z,95462.81
2023-11-07T22:35:20.000Z,95464.66
2023-11-07T22:37:46.751Z,95463.81
2023-11-07T22:40:13.553Z,95463.41
2023-11-07T22:42:40.529Z,95467.44
2023-11-07T22:45:08.633Z,95469.13
2023-11-07T22:47:35.406Z,95473.38
2023-11-07T22:50:02.183Z,95476.38
2023-11-07T22:52:28.836Z,95473.34
2023-11-07T22:54:55.615Z,95474.19
2023-11-07T22:57:22.376Z,95469.09
2023-11-07T22:59:49.153Z,95470.13
2023-11-07T23:02:15.821Z,95469.75
2023-11-07T23:04:42.509Z,95471.31
2023-11-07T23:07:09.573Z,95468.88
2023-11-07T23:09:36.276Z,95469.06
2023-11-07T23:12:03.574Z,95472.13
2023-11-07T23:14:30.672Z,95462.78
2023-11-07T23:16:57.330Z,95461.50
2023-11-07T23:19:23.977Z,95461.91
2023-11-07T23:21:50.625Z,95466.72
2023-11-07T23:24:17.340Z,95462.94
2023-11-07T23:26:48.225Z,95475.34
2023-11-07T23:29:15.688Z,95461.53
2023-11-07T23:31:42.387Z,95472.22
2023-11-07T23:34:09.196Z,95471.97
2023-11-07T23:36:35.943Z,95469.72
2023-11-07T23:39:02.634Z,95471.00
2023-11-07T23:41:29.465Z,95474.03
2023-11-07T23:43:56.183Z,95475.06
2023-11-07T23:46:22.922Z,95468.25
2023-11-07T23:48:49.667Z,95475.19
2023-11-07T23:51:16.496Z,95476.19
2023-11-07T23:53:43.569Z,95470.72
2023-11-07T23:56:10.621Z,95471.13
2023-11-07T23:58:37.333Z,95469.53
